Time;durP1;ratioP1;P1;durP2;ratioP2;P2;SDS_P1;SDS_P2;PMS_P1;PMS_P2;Temp;Humidity;BMP_temperature;BMP_pressure;BME280_temperature;BME280_humidity;BME280_pressure;Samples;Min_cycle;Max_cycle;Signal;HPM_P1;HPM_P2
2021/08/03 00:01:55;;;;;;;2.63;2.25;;;14.30;78.50;;;;;;5055598;28;20051;-69
2021/08/03 00:05:01;;;;;;;3.92;2.10;;;14.20;78.50;;;;;;5057609;28;20047;-69
2021/08/03 00:08:07;;;;;;;5.78;3.33;;;14.20;78.60;;;;;;5055389;28;20481;-68
2021/08/03 00:11:13;;;;;;;3.35;2.60;;;14.20;78.40;;;;;;5053609;28;20484;-67
2021/08/03 00:14:19;;;;;;;4.05;2.25;;;14.20;78.60;;;;;;5056564;28;20021;-68
2021/08/03 00:17:26;;;;;;;2.33;2.13;;;14.10;78.70;;;;;;5056419;28;20108;-68
2021/08/03 00:20:32;;;;;;;3.47;2.13;;;14.10;78.40;;;;;;5059472;28;20035;-71
2021/08/03 00:23:38;;;;;;;3.05;1.95;;;14.10;78.30;;;;;;5060406;28;20490;-69
2021/08/03 00:26:44;;;;;;;3.05;1.75;;;14.00;78.40;;;;;;5051188;28;20017;-69
2021/08/03 00:29:50;;;;;;;6.07;1.48;;;14.00;78.10;;;;;;5041921;28;20033;-69
2021/08/03 00:32:56;;;;;;;5.07;1.83;;;14.00;78.40;;;;;;5053398;28;20123;-69
2021/08/03 00:36:02;;;;;;;3.38;2.13;;;14.00;78.00;;;;;;5059088;28;20082;-70
2021/08/03 00:39:08;;;;;;;4.45;2.28;;;14.00;78.00;;;;;;5057634;28;20456;-69
2021/08/03 00:42:26;;;;;;;4.57;2.67;;;13.90;78.30;;;;;;5059238;28;20475;-70
2021/08/03 00:45:32;;;;;;;4.70;2.00;;;13.90;78.30;;;;;;5057676;28;20036;-70
2021/08/03 00:48:38;;;;;;;3.58;1.60;;;13.90;78.30;;;;;;5059506;28;20024;-69
2021/08/03 00:51:44;;;;;;;2.33;1.85;;;13.80;78.20;;;;;;5058229;28;20497;-69
2021/08/03 00:54:51;;;;;;;2.47;1.65;;;13.80;78.20;;;;;;5053542;28;20025;-68
2021/08/03 00:57:57;;;;;;;2.60;1.70;;;13.80;78.10;;;;;;5054738;28;20074;-69
2021/08/03 01:01:03;;;;;;;3.03;1.35;;;13.80;78.50;;;;;;5058377;28;20471;-69
2021/08/03 01:03:29;;;;;;;2.10;1.63;;;13.70;78.60;;;;;;5057814;28;20815;-69
2021/08/03 01:06:27;;;;;;;4.50;2.75;;;13.70;78.60;;;;;;5061789;28;20131;-68
2021/08/03 01:09:13;;;;;;;3.88;2.22;;;13.70;78.70;;;;;;5061209;28;20468;-69
2021/08/03 01:11:56;;;;;;;2.67;2.35;;;13.60;78.70;;;;;;5055832;28;20041;-69
2021/08/03 01:14:28;;;;;;;5.50;2.88;;;13.60;79.00;;;;;;5057324;28;20061;-69
2021/08/03 01:16:58;;;;;;;3.50;1.88;;;13.60;78.90;;;;;;5059303;28;20111;-70
2021/08/03 01:19:46;;;;;;;2.22;1.98;;;13.60;79.00;;;;;;5062608;28;20355;-68
2021/08/03 01:22:15;;;;;;;2.30;1.80;;;13.60;79.20;;;;;;5062975;28;20108;-69
2021/08/03 01:25:00;;;;;;;3.90;2.05;;;13.50;79.00;;;;;;5057710;28;20021;-69
2021/08/03 01:28:04;;;;;;;2.40;2.13;;;13.50;78.90;;;;;;5062437;28;20119;-69
2021/08/03 01:30:36;;;;;;;2.45;2.10;;;13.50;78.90;;;;;;5053092;28;20392;-68
2021/08/03 01:33:05;;;;;;;3.40;1.92;;;13.50;78.90;;;;;;5060155;28;20017;-69
2021/08/03 01:35:33;;;;;;;2.83;1.90;;;13.50;78.90;;;;;;5064261;28;20123;-69
2021/08/03 01:38:01;;;;;;;4.10;1.98;;;13.40;78.80;;;;;;5042194;28;20032;-69
2021/08/03 01:40:29;;;;;;;6.00;2.33;;;13.40;78.80;;;;;;5046933;28;20021;-69
2021/08/03 01:42:56;;;;;;;6.15;2.53;;;13.40;78.70;;;;;;5059444;28;20029;-68
2021/08/03 01:45:24;;;;;;;3.47;2.30;;;13.40;78.90;;;;;;5060165;28;20017;-69
2021/08/03 01:47:50;;;;;;;4.05;2.30;;;13.40;78.60;;;;;;5046926;28;20155;-69
2021/08/03 01:50:17;;;;;;;2.35;2.03;;;13.30;78.70;;;;;;5061914;28;20041;-70
2021/08/03 01:52:46;;;;;;;3.67;2.53;;;13.40;78.60;;;;;;5060592;28;20021;-70
2021/08/03 01:55:13;;;;;;;3.60;2.78;;;13.30;78.80;;;;;;5039474;28;20016;-69
2021/08/03 01:57:43;;;;;;;4.53;2.35;;;13.30;78.90;;;;;;5058891;28;20119;-70
2021/08/03 02:00:11;;;;;;;4.28;2.72;;;13.30;78.90;;;;;;5058395;28;20028;-70
2021/08/03 02:02:38;;;;;;;2.67;1.70;;;13.30;78.90;;;;;;5061622;28;20078;-71
2021/08/03 02:05:05;;;;;;;3.67;2.05;;;13.20;79.10;;;;;;5063052;28;20114;-70
2021/08/03 02:07:34;;;;;;;7.28;3.15;;;13.20;79.10;;;;;;5058089;28;20099;-71
2021/08/03 02:10:40;;;;;;;5.28;2.33;;;13.30;79.10;;;;;;5054448;28;20021;-70
2021/08/03 02:13:46;;;;;;;3.22;2.95;;;13.20;79.70;;;;;;5061227;28;20483;-70
2021/08/03 02:16:52;;;;;;;5.63;3.00;;;13.20;79.60;;;;;;5058561;28;20028;-69
2021/08/03 02:19:19;;;;;;;5.45;3.60;;;13.20;79.70;;;;;;5057446;28;20783;-69
2021/08/03 02:21:46;;;;;;;6.60;4.18;;;13.20;79.50;;;;;;5058867;28;20032;-69
2021/08/03 02:24:14;;;;;;;6.45;4.80;;;13.20;79.60;;;;;;5061132;28;20094;-69
2021/08/03 02:26:40;;;;;;;8.30;5.53;;;13.20;80.10;;;;;;5060520;28;20482;-69
2021/08/03 02:29:08;;;;;;;7.40;4.22;;;13.20;79.80;;;;;;5058092;28;20059;-69
2021/08/03 02:31:42;;;;;;;6.10;4.32;;;13.20;79.60;;;;;;5058227;28;20077;-69
2021/08/03 02:34:29;;;;;;;7.63;4.85;;;13.20;80.00;;;;;;5059336;28;20550;-69
2021/08/03 02:37:03;;;;;;;7.32;4.43;;;13.20;80.00;;;;;;5055664;28;20036;-69
2021/08/03 02:39:31;;;;;;;6.63;4.90;;;13.10;80.00;;;;;;5051916;28;20040;-69
2021/08/03 02:41:58;;;;;;;8.38;4.80;;;13.10;79.80;;;;;;5055400;28;20348;-69
2021/08/03 02:44:26;;;;;;;7.88;3.85;;;13.10;80.00;;;;;;5061438;28;20037;-69
2021/08/03 02:46:55;;;;;;;7.10;5.22;;;13.10;79.80;;;;;;5060376;28;20032;-69
2021/08/03 02:49:35;;;;;;;5.28;4.78;;;13.10;79.80;;;;;;5058343;28;20089;-69
2021/08/03 02:52:06;;;;;;;5.53;4.50;;;13.10;79.90;;;;;;5060901;28;20049;-70
2021/08/03 02:54:38;;;;;;;8.55;4.63;;;13.10;79.90;;;;;;5058742;28;20025;-70
2021/08/03 02:57:09;;;;;;;6.90;4.60;;;13.10;80.00;;;;;;5058769;28;20411;-70
2021/08/03 02:59:42;;;;;;;7.85;5.03;;;13.10;80.20;;;;;;5057816;28;20502;-71
2021/08/03 03:02:13;;;;;;;4.88;4.20;;;13.00;80.30;;;;;;5057581;28;20035;-69
2021/08/03 03:04:47;;;;;;;7.43;5.10;;;13.00;80.10;;;;;;5055044;28;20028;-70
2021/08/03 03:07:25;;;;;;;6.63;3.97;;;13.00;79.90;;;;;;5061139;28;20033;-70
2021/08/03 03:09:53;;;;;;;6.10;4.45;;;13.00;79.80;;;;;;5057904;28;20114;-70
2021/08/03 03:12:24;;;;;;;6.55;4.25;;;12.90;79.70;;;;;;5056768;28;20863;-70
2021/08/03 03:14:51;;;;;;;7.13;4.35;;;12.90;79.80;;;;;;5058827;28;20025;-70
2021/08/03 03:17:20;;;;;;;6.72;3.65;;;12.80;80.10;;;;;;5060702;28;20119;-70
2021/08/03 03:19:49;;;;;;;5.68;4.13;;;12.90;79.60;;;;;;5058208;28;20021;-70
2021/08/03 03:22:16;;;;;;;8.10;4.28;;;12.80;79.50;;;;;;5063677;28;20025;-70
2021/08/03 03:24:45;;;;;;;6.65;3.97;;;12.80;79.40;;;;;;5057624;28;20021;-70
2021/08/03 03:27:12;;;;;;;5.85;4.13;;;12.80;79.90;;;;;;5060338;28;20031;-70
2021/08/03 03:29:39;;;;;;;4.43;3.60;;;12.80;79.30;;;;;;5057864;28;20048;-70
2021/08/03 03:32:06;;;;;;;5.20;4.28;;;12.80;79.30;;;;;;5055523;28;20042;-70
2021/08/03 03:34:34;;;;;;;6.20;3.85;;;12.80;79.60;;;;;;5057355;28;20025;-70
2021/08/03 03:37:01;;;;;;;5.57;4.53;;;12.70;79.80;;;;;;5062535;28;20079;-70
2021/08/03 03:39:28;;;;;;;5.40;3.85;;;12.70;79.50;;;;;;5054272;28;20039;-69
2021/08/03 03:42:01;;;;;;;6.18;3.97;;;12.70;79.40;;;;;;5059840;28;20352;-70
2021/08/03 03:44:29;;;;;;;5.53;4.93;;;12.70;79.40;;;;;;5054045;28;20424;-69
2021/08/03 03:46:59;;;;;;;10.27;7.15;;;12.60;79.60;;;;;;5040735;28;21058;-68
2021/08/03 03:49:32;;;;;;;11.98;10.13;;;12.60;79.90;;;;;;5059446;28;20074;-68
2021/08/03 03:52:01;;;;;;;7.13;5.95;;;12.60;80.00;;;;;;5057082;28;20449;-69
2021/08/03 03:55:07;;;;;;;5.47;4.20;;;12.60;79.90;;;;;;5056465;28;20430;-70
2021/08/03 03:58:13;;;;;;;6.63;4.03;;;12.60;80.10;;;;;;5055157;28;20020;-69
2021/08/03 04:01:20;;;;;;;3.72;3.15;;;12.60;79.50;;;;;;5055250;28;20125;-70
2021/08/03 04:04:26;;;;;;;4.47;2.80;;;12.60;79.20;;;;;;5056424;28;20017;-69
2021/08/03 04:07:32;;;;;;;3.15;2.85;;;12.50;79.40;;;;;;5059576;28;20384;-69
2021/08/03 04:10:41;;;;;;;6.00;2.75;;;12.50;79.00;;;;;;5059949;28;20361;-70
2021/08/03 04:13:47;;;;;;;3.35;3.05;;;12.50;78.70;;;;;;5058455;28;20021;-69
2021/08/03 04:16:53;;;;;;;34.40;24.48;;;12.40;78.80;;;;;;5063507;28;20517;-72
2021/08/03 04:19:59;;;;;;;10.85;8.43;;;12.50;78.90;;;;;;5060079;28;20028;-67
2021/08/03 04:23:05;;;;;;;4.45;3.13;;;12.40;79.00;;;;;;5059033;28;20070;-68
2021/08/03 04:26:11;;;;;;;5.22;3.35;;;12.40;79.00;;;;;;5061588;28;20039;-70
2021/08/03 04:29:17;;;;;;;10.15;7.45;;;12.40;78.90;;;;;;5063167;28;20024;-70
2021/08/03 04:32:24;;;;;;;4.35;3.63;;;12.40;79.00;;;;;;5058254;28;20112;-69
2021/08/03 04:35:30;;;;;;;4.90;3.72;;;12.40;78.80;;;;;;5063297;28;20362;-68
2021/08/03 04:37:56;;;;;;;2.90;2.55;;;12.40;78.50;;;;;;5067687;28;20035;-69
2021/08/03 04:40:23;;;;;;;2.78;2.03;;;12.40;78.60;;;;;;5062401;28;20032;-70
2021/08/03 04:42:50;;;;;;;2.40;2.00;;;12.30;78.40;;;;;;5065688;28;20102;-74
2021/08/03 04:45:17;;;;;;;5.43;2.70;;;12.30;78.80;;;;;;5066265;28;20507;-69
2021/08/03 04:47:49;;;;;;;3.25;2.25;;;12.30;78.90;;;;;;5050343;28;20027;-69
2021/08/03 04:50:27;;;;;;;4.32;2.50;;;12.20;78.90;;;;;;5062569;28;20052;-65
2021/08/03 04:53:33;;;;;;;3.75;2.53;;;12.30;78.80;;;;;;5056107;28;20106;-66
2021/08/03 04:56:39;;;;;;;4.72;2.53;;;12.30;78.80;;;;;;5056458;28;20068;-70
2021/08/03 04:59:05;;;;;;;6.55;2.72;;;12.30;78.70;;;;;;5056566;28;20171;-67
2021/08/03 05:01:32;;;;;;;3.45;2.67;;;12.20;78.70;;;;;;5053821;28;20037;-67
2021/08/03 05:04:00;;;;;;;2.90;2.38;;;12.20;78.70;;;;;;5037576;28;20033;-68
2021/08/03 05:06:27;;;;;;;4.30;3.42;;;12.20;78.80;;;;;;5054510;28;20021;-68
2021/08/03 05:08:53;;;;;;;3.33;2.72;;;12.20;79.40;;;;;;5055331;28;20025;-68
2021/08/03 05:11:20;;;;;;;5.10;3.10;;;12.20;78.90;;;;;;5055192;28;20044;-67
2021/08/03 05:13:46;;;;;;;4.07;2.95;;;12.20;78.70;;;;;;5054331;28;20060;-67
2021/08/03 05:16:13;;;;;;;6.13;3.45;;;12.20;79.00;;;;;;5056147;28;20021;-67
2021/08/03 05:18:39;;;;;;;8.40;4.07;;;12.20;79.10;;;;;;5054927;28;20020;-66
2021/08/03 05:21:45;;;;;;;4.43;3.85;;;12.20;79.50;;;;;;5057654;28;20029;-66
2021/08/03 05:24:12;;;;;;;6.57;4.35;;;12.20;79.70;;;;;;5036900;28;20021;-67
2021/08/03 05:26:38;;;;;;;6.03;5.43;;;12.10;80.00;;;;;;5053951;28;20499;-67
2021/08/03 05:29:05;;;;;;;8.57;5.05;;;12.20;80.30;;;;;;5055670;28;20016;-67
2021/08/03 05:31:31;;;;;;;7.88;5.65;;;12.10;80.60;;;;;;5056573;28;20056;-67
2021/08/03 05:34:00;;;;;;;9.15;5.95;;;12.10;80.50;;;;;;5055843;28;20024;-66
2021/08/03 05:36:26;;;;;;;8.48;5.18;;;12.10;80.80;;;;;;5053864;28;20408;-66
2021/08/03 05:38:53;;;;;;;8.57;5.20;;;12.10;81.50;;;;;;5058920;28;20103;-67
2021/08/03 05:41:19;;;;;;;10.05;5.05;;;12.10;81.80;;;;;;5065064;28;20029;-69
2021/08/03 05:43:46;;;;;;;10.82;6.68;;;12.00;82.20;;;;;;5059657;28;20028;-68
2021/08/03 05:46:12;;;;;;;9.18;5.90;;;12.00;82.50;;;;;;5060366;28;20043;-68
2021/08/03 05:48:39;;;;;;;12.00;7.18;;;12.10;82.90;;;;;;5063409;28;20031;-67
2021/08/03 05:51:05;;;;;;;11.13;6.25;;;12.10;82.80;;;;;;5064983;28;20452;-70
2021/08/03 05:53:31;;;;;;;9.63;6.13;;;12.10;83.20;;;;;;5063250;28;20040;-68
2021/08/03 05:55:58;;;;;;;9.43;5.45;;;12.20;83.40;;;;;;5064977;28;20410;-69
2021/08/03 05:58:24;;;;;;;7.50;5.85;;;12.20;83.40;;;;;;5060586;28;20039;-70
2021/08/03 06:00:51;;;;;;;7.07;5.13;;;12.20;83.40;;;;;;5063797;28;20044;-69
2021/08/03 06:03:18;;;;;;;10.85;6.65;;;12.20;83.30;;;;;;5065641;28;20031;-70
2021/08/03 06:05:45;;;;;;;9.38;5.32;;;12.30;83.40;;;;;;5064523;28;20040;-70
2021/08/03 06:08:14;;;;;;;15.95;6.45;;;12.30;83.10;;;;;;5064060;28;20020;-69
2021/08/03 06:10:43;;;;;;;9.35;5.95;;;12.30;83.10;;;;;;5064326;28;20090;-70
2021/08/03 06:13:12;;;;;;;9.63;5.53;;;12.30;83.00;;;;;;5062374;28;20029;-69
2021/08/03 06:15:40;;;;;;;10.63;6.35;;;12.30;82.80;;;;;;5061923;28;20017;-70
2021/08/03 06:18:36;;;;;;;7.15;4.72;;;12.30;82.80;;;;;;5061945;28;20029;-70
2021/08/03 06:21:03;;;;;;;13.88;6.75;;;12.30;82.90;;;;;;5066104;28;20448;-70
2021/08/03 06:23:29;;;;;;;6.72;5.05;;;12.30;83.70;;;;;;5061616;28;20025;-70
2021/08/03 06:25:58;;;;;;;8.32;6.32;;;12.40;84.10;;;;;;5061008;28;20036;-70
2021/08/03 06:28:25;;;;;;;12.70;7.05;;;12.40;84.20;;;;;;5060346;28;20025;-70
2021/08/03 06:30:53;;;;;;;15.85;7.78;;;12.40;84.60;;;;;;5059015;28;20037;-70
2021/08/03 06:33:21;;;;;;;10.32;7.65;;;12.50;84.80;;;;;;5061048;28;20412;-70
2021/08/03 06:35:49;;;;;;;15.07;9.10;;;12.50;84.80;;;;;;5063641;28;20016;-69
2021/08/03 06:38:16;;;;;;;17.10;8.25;;;12.50;84.90;;;;;;5062327;28;20020;-70
2021/08/03 06:40:53;;;;;;;14.25;8.68;;;12.60;84.90;;;;;;5063442;28;20203;-70
2021/08/03 06:43:25;;;;;;;16.67;8.27;;;12.60;85.10;;;;;;5060832;28;20116;-69
2021/08/03 06:46:18;;;;;;;20.10;9.45;;;12.70;85.00;;;;;;5060953;28;20066;-69
2021/08/03 06:48:54;;;;;;;17.23;8.68;;;12.70;85.10;;;;;;5057082;28;20400;-70
2021/08/03 06:51:21;;;;;;;13.35;7.65;;;12.80;85.10;;;;;;5064060;28;20044;-71
2021/08/03 06:53:49;;;;;;;12.38;7.07;;;12.80;85.30;;;;;;5059783;28;20388;-71
2021/08/03 06:56:20;;;;;;;10.98;7.30;;;12.80;85.40;;;;;;5059687;28;20016;-71
2021/08/03 06:59:05;;;;;;;15.60;6.55;;;12.90;85.50;;;;;;5061128;28;20085;-71
2021/08/03 07:01:52;;;;;;;10.68;7.30;;;12.90;85.60;;;;;;5061294;28;20021;-71
2021/08/03 07:04:46;;;;;;;8.07;5.10;;;13.00;85.70;;;;;;5062745;28;20021;-71
2021/08/03 07:07:13;;;;;;;10.50;6.45;;;13.00;85.80;;;;;;5061150;28;20023;-70
2021/08/03 07:09:43;;;;;;;14.10;6.78;;;13.10;86.10;;;;;;5061525;28;20048;-71
2021/08/03 07:12:11;;;;;;;15.48;7.80;;;13.10;86.10;;;;;;5058566;28;20033;-69
2021/08/03 07:14:39;;;;;;;12.48;6.60;;;13.10;86.00;;;;;;5060571;28;20024;-70
2021/08/03 07:17:14;;;;;;;19.25;6.97;;;13.20;86.20;;;;;;5057116;28;20017;-71
2021/08/03 07:19:41;;;;;;;;;;;13.30;86.20;;;;;;5062154;28;20017;-71
2021/08/03 07:22:15;;;;;;;15.07;8.15;;;13.30;86.20;;;;;;5063643;28;20003;-71
2021/08/03 07:24:48;;;;;;;15.05;8.10;;;13.40;86.20;;;;;;5062922;28;20123;-71
2021/08/03 07:27:15;;;;;;;21.80;9.38;;;13.40;86.10;;;;;;5061411;28;20519;-71
2021/08/03 07:29:42;;;;;;;20.20;9.55;;;13.40;86.10;;;;;;5056725;28;20058;-70
2021/08/03 07:32:10;;;;;;;19.85;9.60;;;13.50;86.30;;;;;;5060754;28;20055;-70
2021/08/03 07:34:38;;;;;;;18.60;9.07;;;13.60;87.00;;;;;;5058610;28;20438;-70
2021/08/03 07:37:06;;;;;;;28.20;12.00;;;13.60;86.40;;;;;;5064562;28;20027;-70
2021/08/03 07:39:35;;;;;;;17.70;9.98;;;13.70;86.40;;;;;;5061637;28;20019;-70
2021/08/03 07:42:01;;;;;;;24.02;11.27;;;13.80;86.00;;;;;;5060362;28;20519;-71
2021/08/03 07:44:28;;;;;;;29.10;11.65;;;13.80;85.70;;;;;;5065902;28;20422;-70
2021/08/03 07:46:54;;;;;;;21.33;11.23;;;13.90;85.60;;;;;;5060039;28;20537;-70
2021/08/03 07:49:21;;;;;;;23.23;10.13;;;13.90;85.50;;;;;;5061180;28;20649;-72
2021/08/03 07:51:48;;;;;;;19.63;10.18;;;14.00;85.60;;;;;;5058218;28;20053;-71
2021/08/03 07:54:15;;;;;;;23.02;9.70;;;14.00;85.60;;;;;;5061799;28;20476;-71
2021/08/03 07:56:42;;;;;;;31.55;14.40;;;14.10;85.90;;;;;;5061361;28;20483;-70
2021/08/03 07:59:09;;;;;;;24.02;12.10;;;14.10;86.00;;;;;;5063436;28;20104;-69
2021/08/03 08:01:36;;;;;;;33.25;11.75;;;14.20;86.20;;;;;;5062894;28;20021;-68
2021/08/03 08:04:03;;;;;;;32.53;13.55;;;14.30;86.50;;;;;;5058911;28;20021;-67
2021/08/03 08:06:30;;;;;;;32.38;12.90;;;14.30;86.90;;;;;;5061968;28;20103;-68
2021/08/03 08:08:57;;;;;;;32.33;12.60;;;14.40;87.20;;;;;;5061847;28;20021;-68
2021/08/03 08:11:24;;;;;;;34.15;12.73;;;14.40;87.20;;;;;;5059182;28;20056;-68
2021/08/03 08:13:51;;;;;;;31.17;13.00;;;14.50;87.50;;;;;;5059665;28;20040;-69
2021/08/03 08:16:17;;;;;;;32.53;14.43;;;14.60;87.80;;;;;;5059987;28;20375;-67
2021/08/03 08:18:44;;;;;;;25.38;11.48;;;14.70;88.00;;;;;;5063759;28;20476;-68
2021/08/03 08:21:10;;;;;;;35.88;14.80;;;14.70;87.20;;;;;;5062263;28;20029;-68
2021/08/03 08:23:37;;;;;;;34.25;12.90;;;14.80;86.60;;;;;;5060232;28;20058;-69
2021/08/03 08:26:03;;;;;;;30.35;15.35;;;14.80;86.00;;;;;;5064176;28;20020;-68
2021/08/03 08:28:30;;;;;;;32.17;14.75;;;14.90;87.00;;;;;;5061456;28;20055;-68
2021/08/03 08:30:57;;;;;;;27.02;14.98;;;15.00;86.70;;;;;;5062173;28;20475;-68
2021/08/03 08:33:23;;;;;;;21.67;13.60;;;15.10;86.30;;;;;;5058686;28;20079;-69
2021/08/03 08:35:50;;;;;;;20.17;13.75;;;15.30;85.20;;;;;;5060370;28;20078;-68
2021/08/03 08:38:16;;;;;;;31.05;14.13;;;15.30;85.40;;;;;;5060559;28;20524;-67
2021/08/03 08:40:43;;;;;;;21.13;12.60;;;15.40;85.00;;;;;;5061084;28;20036;-68
2021/08/03 08:43:15;;;;;;;27.88;14.40;;;15.40;85.20;;;;;;5062563;28;20023;-67
2021/08/03 08:45:45;;;;;;;23.98;12.93;;;15.50;85.30;;;;;;5061863;28;20046;-69
2021/08/03 08:48:14;;;;;;;22.70;12.13;;;15.60;84.70;;;;;;5055299;28;20151;-69
2021/08/03 08:50:42;;;;;;;21.45;10.75;;;15.70;84.00;;;;;;5063408;28;20055;-70
2021/08/03 08:53:08;;;;;;;19.95;8.68;;;15.80;84.20;;;;;;5058580;28;20480;-70
2021/08/03 08:55:35;;;;;;;14.93;8.15;;;15.80;82.10;;;;;;5060675;28;20051;-70
2021/08/03 08:58:02;;;;;;;15.52;7.32;;;15.90;81.50;;;;;;5060908;28;20629;-70
2021/08/03 09:00:29;;;;;;;12.50;6.85;;;15.90;81.20;;;;;;5058855;28;20032;-69
2021/08/03 09:02:57;;;;;;;12.75;7.72;;;16.00;79.90;;;;;;5061303;28;20029;-70
2021/08/03 09:05:41;;;;;;;9.38;6.25;;;16.10;79.90;;;;;;5064394;28;20048;-69
2021/08/03 09:08:09;;;;;;;8.20;6.03;;;16.20;79.00;;;;;;5064179;28;20020;-69
2021/08/03 09:10:37;;;;;;;9.38;7.30;;;16.30;78.30;;;;;;5058902;28;20483;-69
2021/08/03 09:13:09;;;;;;;14.88;8.27;;;16.40;78.60;;;;;;5060158;28;20017;-70
2021/08/03 09:15:38;;;;;;;11.50;6.55;;;16.40;78.30;;;;;;5059318;28;20032;-70
2021/08/03 09:18:24;;;;;;;14.70;6.95;;;16.50;77.50;;;;;;5060440;28;20033;-70
2021/08/03 09:20:51;;;;;;;10.70;7.53;;;16.60;77.00;;;;;;5060487;28;20017;-71
2021/08/03 09:23:18;;;;;;;14.13;6.97;;;16.70;76.30;;;;;;5063763;28;20021;-70
2021/08/03 09:25:58;;;;;;;9.93;6.07;;;16.70;75.10;;;;;;5062961;28;20016;-69
2021/08/03 09:28:25;;;;;;;12.32;7.18;;;16.80;74.40;;;;;;5062741;28;20017;-70
2021/08/03 09:30:52;;;;;;;13.52;6.25;;;16.80;74.40;;;;;;5064427;28;20043;-71
2021/08/03 09:33:24;;;;;;;10.80;7.32;;;16.90;74.00;;;;;;5063739;28;20056;-70
2021/08/03 09:35:51;;;;;;;15.70;6.82;;;17.10;74.90;;;;;;5061419;28;20033;-70
2021/08/03 09:38:20;;;;;;;9.07;6.03;;;17.10;74.20;;;;;;5062333;28;20101;-70
2021/08/03 09:40:48;;;;;;;10.65;6.43;;;17.20;73.60;;;;;;5066280;28;20467;-71
2021/08/03 09:43:26;;;;;;;15.32;7.75;;;17.30;74.60;;;;;;5063335;28;20024;-69
2021/08/03 09:45:53;;;;;;;13.25;7.47;;;17.40;74.50;;;;;;5062334;28;20044;-70
2021/08/03 09:48:24;;;;;;;16.50;8.23;;;17.50;73.80;;;;;;5061258;28;20025;-70
2021/08/03 09:51:08;;;;;;;10.45;5.97;;;17.60;74.80;;;;;;5061398;28;20032;-70
2021/08/03 09:53:41;;;;;;;12.23;7.13;;;17.80;74.00;;;;;;5063102;28;20043;-70
2021/08/03 09:56:13;;;;;;;11.77;7.60;;;17.90;73.80;;;;;;5063908;28;20035;-70
2021/08/03 09:58:57;;;;;;;11.30;7.97;;;17.90;72.60;;;;;;5063950;28;20059;-70
2021/08/03 10:01:26;;;;;;;17.55;7.82;;;18.00;72.10;;;;;;5065594;28;20039;-70
2021/08/03 10:03:53;;;;;;;12.48;7.03;;;18.10;71.70;;;;;;5061398;28;20013;-70
2021/08/03 10:06:21;;;;;;;17.15;7.50;;;18.30;72.60;;;;;;5061906;28;20031;-71
2021/08/03 10:08:53;;;;;;;12.55;8.15;;;18.40;72.60;;;;;;5060716;28;20021;-70
2021/08/03 10:11:21;;;;;;;15.05;7.90;;;18.60;71.10;;;;;;5064439;28;20511;-70
2021/08/03 10:13:48;;;;;;;12.10;9.00;;;18.70;70.80;;;;;;5065885;28;20027;-70
2021/08/03 10:16:16;;;;;;;17.08;8.48;;;18.80;70.10;;;;;;5061593;28;20115;-69
2021/08/03 10:18:49;;;;;;;15.05;7.65;;;19.00;69.10;;;;;;5060920;28;20036;-69
2021/08/03 10:21:47;;;;;;;11.65;7.68;;;19.10;68.50;;;;;;5063162;28;20380;-70
2021/08/03 10:24:17;;;;;;;16.17;7.38;;;19.20;68.00;;;;;;5067278;28;20025;-70
2021/08/03 10:27:02;;;;;;;13.52;8.20;;;19.30;66.60;;;;;;5060864;28;20031;-70
2021/08/03 10:29:29;;;;;;;15.47;8.40;;;19.50;66.50;;;;;;5062214;28;20028;-69
2021/08/03 10:31:56;;;;;;;14.20;7.35;;;19.50;64.90;;;;;;5064950;28;20285;-70
2021/08/03 10:34:50;;;;;;;16.33;8.13;;;19.70;63.60;;;;;;5060923;28;20024;-70
2021/08/03 10:37:17;;;;;;;20.13;7.70;;;19.80;63.70;;;;;;5062414;28;20028;-69
2021/08/03 10:39:58;;;;;;;12.02;7.47;;;20.00;63.20;;;;;;5062835;28;20028;-69
2021/08/03 10:42:27;;;;;;;20.05;9.93;;;20.10;62.70;;;;;;5063735;28;20031;-70
2021/08/03 10:44:57;;;;;;;20.75;11.38;;;20.20;61.50;;;;;;5065374;28;20033;-69
2021/08/03 10:47:33;;;;;;;25.10;11.38;;;20.30;62.20;;;;;;5061898;28;20063;-69
2021/08/03 10:50:03;;;;;;;18.83;10.75;;;20.40;62.30;;;;;;5064811;28;20391;-70
2021/08/03 10:52:56;;;;;;;15.93;10.57;;;20.50;62.10;;;;;;5063017;28;20079;-70
2021/08/03 10:55:58;;;;;;;20.27;10.95;;;20.60;61.60;;;;;;5064914;28;20066;-71
2021/08/03 10:58:27;;;;;;;21.77;10.48;;;20.70;61.60;;;;;;5063204;28;20024;-69
2021/08/03 11:01:00;;;;;;;23.40;11.40;;;20.80;60.10;;;;;;5062228;28;20020;-69
2021/08/03 11:03:36;;;;;;;21.08;8.70;;;20.80;61.50;;;;;;5064602;28;20025;-68
2021/08/03 11:06:11;;;;;;;16.67;8.05;;;20.80;63.60;;;;;;5061497;28;20025;-68
2021/08/03 11:08:43;;;;;;;26.67;9.65;;;20.90;65.70;;;;;;5062340;28;20017;-71
2021/08/03 11:11:09;;;;;;;20.00;9.05;;;21.00;67.40;;;;;;5060770;28;20032;-70
2021/08/03 11:13:57;;;;;;;19.50;9.63;;;21.00;68.10;;;;;;5058978;28;20500;-68
2021/08/03 11:16:23;;;;;;;16.83;7.35;;;21.00;67.90;;;;;;5062667;28;20033;-70
2021/08/03 11:18:52;;;;;;;18.65;7.90;;;21.10;67.70;;;;;;5064437;28;20158;-71
2021/08/03 11:21:30;;;;;;;16.98;8.80;;;21.10;67.30;;;;;;5060315;28;20028;-70
2021/08/03 11:24:07;;;;;;;14.75;7.47;;;21.10;67.50;;;;;;5060146;28;20477;-71
2021/08/03 11:26:39;;;;;;;17.63;8.93;;;21.10;66.50;;;;;;5063744;28;20017;-70
2021/08/03 11:29:15;;;;;;;16.85;7.82;;;21.20;67.10;;;;;;5061947;28;20103;-71
2021/08/03 11:31:58;;;;;;;22.45;9.05;;;21.20;68.10;;;;;;5061245;28;20112;-71
2021/08/03 11:34:43;;;;;;;23.73;9.82;;;21.20;68.80;;;;;;5061319;28;20051;-70
2021/08/03 11:37:17;;;;;;;18.15;9.32;;;21.20;69.20;;;;;;5061928;28;20028;-70
2021/08/03 11:39:58;;;;;;;23.13;10.48;;;21.20;69.20;;;;;;5063107;28;20123;-71
2021/08/03 11:42:36;;;;;;;20.75;8.70;;;21.00;69.20;;;;;;5064526;28;20538;-70
2021/08/03 11:45:09;;;;;;;16.60;8.98;;;20.90;68.80;;;;;;5061467;28;20017;-70
2021/08/03 11:47:49;;;;;;;17.17;8.95;;;20.70;68.90;;;;;;5059318;28;20044;-70
2021/08/03 11:50:29;;;;;;;17.92;7.85;;;20.50;66.80;;;;;;5063890;28;20165;-70
2021/08/03 11:53:12;;;;;;;12.75;7.05;;;20.40;68.70;;;;;;5062627;28;20029;-70
2021/08/03 11:55:43;;;;;;;12.45;7.15;;;20.40;70.70;;;;;;5064334;28;20017;-69
2021/08/03 11:58:11;;;;;;;11.77;7.13;;;20.30;71.50;;;;;;5062542;28;20009;-70
2021/08/03 12:00:38;;;;;;;12.27;6.13;;;20.20;71.90;;;;;;5061196;28;20112;-68
2021/08/03 12:03:05;;;;;;;13.40;6.32;;;20.30;72.10;;;;;;5062344;28;20024;-70
2021/08/03 12:05:34;;;;;;;8.63;5.20;;;20.30;72.20;;;;;;5061232;28;20570;-70
2021/08/03 12:08:10;;;;;;;10.70;4.97;;;20.40;71.90;;;;;;5067496;28;20017;-69
2021/08/03 12:10:44;;;;;;;9.23;4.13;;;20.40;71.00;;;;;;5062072;28;20036;-69
2021/08/03 12:13:33;;;;;;;14.43;5.43;;;20.50;71.00;;;;;;5061218;28;20028;-69
2021/08/03 12:16:02;;;;;;;10.00;4.32;;;20.50;70.70;;;;;;5056971;28;20112;-69
2021/08/03 12:18:45;;;;;;;9.45;4.00;;;20.50;69.70;;;;;;5061485;28;20020;-69
2021/08/03 12:21:13;;;;;;;11.32;4.55;;;20.70;69.70;;;;;;5059530;28;20056;-69
2021/08/03 12:23:41;;;;;;;9.43;4.15;;;20.70;68.70;;;;;;5062301;28;20107;-70
2021/08/03 12:26:15;;;;;;;13.25;4.10;;;20.80;68.30;;;;;;5061416;28;20067;-70
2021/08/03 12:28:59;;;;;;;10.05;4.03;;;20.80;67.90;;;;;;5063352;28;20089;-69
2021/08/03 12:31:37;;;;;;;18.63;4.80;;;20.90;67.70;;;;;;5061802;28;20399;-69
2021/08/03 12:34:07;;;;;;;8.20;3.75;;;21.00;67.30;;;;;;5060326;28;20107;-69
2021/08/03 12:36:56;;;;;;;5.43;3.33;;;21.10;65.50;;;;;;5062312;28;20016;-69
2021/08/03 12:39:30;;;;;;;8.90;3.42;;;21.20;64.30;;;;;;5062650;28;20028;-69
2021/08/03 12:42:31;;;;;;;5.15;3.30;;;21.20;63.60;;;;;;5062712;28;20029;-69
2021/08/03 12:45:11;;;;;;;10.38;3.70;;;21.30;64.20;;;;;;5057040;28;20484;-69
2021/08/03 12:47:52;;;;;;;6.63;3.38;;;21.30;63.60;;;;;;5064189;28;20414;-69
2021/08/03 12:50:20;;;;;;;6.70;3.67;;;21.30;62.50;;;;;;5061390;28;20029;-69
2021/08/03 12:52:51;;;;;;;9.13;3.72;;;21.40;63.20;;;;;;5060947;28;20021;-69
2021/08/03 12:58:40;;;;;;;8.07;3.40;;;21.40;64.30;;;;;;4985667;28;20034;-69
2021/08/03 13:01:19;;;;;;;8.65;4.45;;;21.50;65.30;;;;;;5052399;28;20066;-69
2021/08/03 13:03:47;;;;;;;10.02;3.47;;;21.40;65.40;;;;;;5063929;28;20036;-69
2021/08/03 13:06:15;;;;;;;15.48;3.90;;;21.40;66.00;;;;;;5063367;28;20126;-69
2021/08/03 13:08:46;;;;;;;9.07;3.20;;;21.40;65.80;;;;;;5066444;28;20029;-68
2021/08/03 13:11:16;;;;;;;9.57;3.28;;;21.40;65.70;;;;;;5067120;28;20037;-69
2021/08/03 13:13:43;;;;;;;8.90;4.97;;;21.40;65.80;;;;;;5066894;28;20555;-68
2021/08/03 13:16:10;;;;;;;13.93;4.55;;;21.40;65.90;;;;;;5061153;28;20077;-70
2021/08/03 13:18:38;;;;;;;10.48;4.13;;;21.40;66.10;;;;;;5062375;28;20017;-71
2021/08/03 13:21:06;;;;;;;7.03;3.20;;;21.30;66.00;;;;;;5066763;28;20116;-69
2021/08/03 13:23:33;;;;;;;7.72;4.28;;;21.40;66.60;;;;;;5065154;28;20066;-69
2021/08/03 13:25:59;;;;;;;8.00;3.10;;;21.30;67.10;;;;;;5065139;28;20408;-69
2021/08/03 13:28:26;;;;;;;7.93;3.20;;;21.20;67.50;;;;;;5063617;28;20900;-69